Time;durP1;ratioP1;P1;durP2;ratioP2;P2;SDS_P1;SDS_P2;PMS_P1;PMS_P2;Temp;Humidity;BMP_temperature;BMP_pressure;BME280_temperature;BME280_humidity;BME280_pressure;Samples;Min_cycle;Max_cycle;Signal;HPM_P1;HPM_P2
2021/10/06 15:50:57;;;;;;;4.13;1.23;;;14.70;99.90;;;;;;5061512;22;20106;-68
2021/10/06 15:53:24;;;;;;;4.72;1.50;;;14.00;99.90;;;;;;5029844;28;20836;-69
2021/10/06 15:55:52;;;;;;;5.40;1.80;;;14.60;99.90;;;;;;5029721;28;20083;-68
2021/10/06 15:58:19;;;;;;;5.22;1.90;;;14.00;99.90;;;;;;5030745;28;20112;-69
2021/10/06 16:00:47;;;;;;;7.47;2.15;;;13.90;99.90;;;;;;5032450;28;20048;-69
2021/10/06 16:03:15;;;;;;;6.20;2.33;;;14.00;99.90;;;;;;5026615;28;20714;-68
2021/10/06 16:05:42;;;;;;;7.28;1.90;;;14.00;99.90;;;;;;5031621;28;20052;-68
2021/10/06 16:08:11;;;;;;;6.85;2.38;;;13.90;99.90;;;;;;5031263;28;20045;-68
2021/10/06 16:10:38;;;;;;;7.78;1.83;;;13.70;99.90;;;;;;5032385;28;20049;-67
2021/10/06 16:13:05;;;;;;;3.17;1.42;;;13.40;99.90;;;;;;5032446;28;20493;-68
2021/10/06 16:15:32;;;;;;;6.70;1.90;;;13.40;99.90;;;;;;5030531;28;20099;-68
2021/10/06 16:17:59;;;;;;;7.38;1.83;;;13.70;99.90;;;;;;5031653;28;20460;-67
2021/10/06 16:20:26;;;;;;;3.35;1.70;;;13.90;99.90;;;;;;5029867;28;20041;-69
2021/10/06 16:22:54;;;;;;;5.90;2.80;;;13.80;99.90;;;;;;5030457;28;20106;-69
2021/10/06 16:25:22;;;;;;;6.88;1.70;;;14.00;99.90;;;;;;5028433;28;20052;-69
2021/10/06 16:27:49;;;;;;;7.28;2.38;;;14.20;99.90;;;;;;5030054;28;20925;-69
2021/10/06 16:30:16;;;;;;;5.35;1.83;;;14.20;99.90;;;;;;5029567;28;20048;-69
2021/10/06 16:32:45;;;;;;;3.28;1.85;;;14.30;99.90;;;;;;5031532;28;20044;-70
2021/10/06 16:35:13;;;;;;;8.30;1.90;;;14.40;99.90;;;;;;5034236;28;20157;-69
2021/10/06 16:37:40;;;;;;;4.45;1.40;;;14.60;99.90;;;;;;5031441;28;20485;-69
2021/10/06 16:40:10;;;;;;;3.92;1.55;;;14.70;99.90;;;;;;5031821;28;20052;-69
2021/10/06 16:42:40;;;;;;;4.88;1.80;;;14.90;99.90;;;;;;5030274;28;20052;-69
2021/10/06 16:45:08;;;;;;;7.10;1.65;;;15.20;99.90;;;;;;5031313;28;20053;-69
2021/10/06 16:47:35;;;;;;;4.88;1.58;;;15.40;99.90;;;;;;5029599;28;20452;-68
2021/10/06 16:50:04;;;;;;;4.25;1.67;;;15.60;99.90;;;;;;5031423;28;20084;-69
2021/10/06 16:52:32;;;;;;;4.53;1.80;;;15.80;99.90;;;;;;5031953;28;20151;-69
2021/10/06 16:54:59;;;;;;;3.15;1.38;;;15.80;99.90;;;;;;5031520;28;20493;-69
2021/10/06 16:57:31;;;;;;;3.92;1.60;;;15.80;99.90;;;;;;5030669;28;20057;-68
2021/10/06 16:59:59;;;;;;;4.03;1.52;;;16.00;99.90;;;;;;5031246;28;20102;-69
2021/10/06 17:02:26;;;;;;;4.18;1.70;;;16.10;99.90;;;;;;5031172;28;20055;-68
2021/10/06 17:04:53;;;;;;;5.13;1.65;;;16.10;99.90;;;;;;5030869;28;20052;-67
2021/10/06 17:07:25;;;;;;;6.40;1.70;;;16.30;99.90;;;;;;5031550;28;20049;-68
2021/10/06 17:09:52;;;;;;;4.57;1.80;;;16.30;99.90;;;;;;5031639;28;20049;-68
2021/10/06 17:12:19;;;;;;;3.53;1.50;;;16.30;99.90;;;;;;5030364;28;20057;-70
2021/10/06 17:14:47;;;;;;;5.85;1.70;;;16.30;99.90;;;;;;5033790;28;20481;-68
2021/10/06 17:17:15;;;;;;;4.32;1.60;;;16.10;99.90;;;;;;5028330;28;20048;-68
2021/10/06 17:19:42;;;;;;;4.97;1.60;;;16.30;99.90;;;;;;5031074;28;20107;-68
2021/10/06 17:22:11;;;;;;;6.65;2.08;;;16.30;99.90;;;;;;5033963;28;20126;-69
2021/10/06 17:24:38;;;;;;;4.90;1.70;;;16.30;99.90;;;;;;5033845;28;20520;-68
2021/10/06 17:27:05;;;;;;;6.00;2.35;;;16.50;99.90;;;;;;5035066;28;20118;-69
2021/10/06 17:29:32;;;;;;;4.93;1.83;;;16.50;99.90;;;;;;5035389;28;20049;-68
2021/10/06 17:31:59;;;;;;;4.18;1.80;;;16.60;99.90;;;;;;5035336;28;20040;-69
2021/10/06 17:34:28;;;;;;;5.65;1.95;;;16.60;99.90;;;;;;5034766;28;20052;-69
2021/10/06 17:36:55;;;;;;;5.47;2.20;;;16.50;99.90;;;;;;5034387;28;20041;-69
2021/10/06 17:39:22;;;;;;;5.43;2.28;;;16.50;99.90;;;;;;5034672;28;20483;-69
2021/10/06 17:41:49;;;;;;;6.28;2.80;;;16.60;99.90;;;;;;5034321;28;20052;-69
2021/10/06 17:44:16;;;;;;;5.07;2.35;;;16.60;99.90;;;;;;5034800;28;20049;-69
2021/10/06 17:46:43;;;;;;;6.13;2.50;;;16.60;99.90;;;;;;5035721;28;20493;-69
2021/10/06 17:49:10;;;;;;;9.20;2.40;;;16.50;99.90;;;;;;5035900;28;20053;-68
2021/10/06 17:51:40;;;;;;;4.82;2.42;;;16.30;99.90;;;;;;5034065;28;20048;-69
2021/10/06 17:54:07;;;;;;;7.40;2.50;;;16.00;99.90;;;;;;5034589;28;20049;-68
2021/10/06 17:56:35;;;;;;;4.90;2.30;;;15.90;99.90;;;;;;5033735;28;20048;-69
2021/10/06 17:59:02;;;;;;;8.38;3.42;;;15.80;99.90;;;;;;5035023;28;20386;-68
2021/10/06 18:01:29;;;;;;;8.00;2.80;;;15.80;99.90;;;;;;5034331;28;20106;-69
2021/10/06 18:03:56;;;;;;;8.85;2.97;;;15.80;99.90;;;;;;5034935;28;20471;-69
2021/10/06 18:06:23;;;;;;;11.25;3.28;;;15.80;99.90;;;;;;5032780;28;20064;-69
2021/10/06 18:08:51;;;;;;;14.00;4.10;;;15.80;99.90;;;;;;5033251;28;20050;-69
2021/10/06 18:11:19;;;;;;;7.60;2.92;;;15.80;99.90;;;;;;5030634;28;20528;-67
2021/10/06 18:13:46;;;;;;;11.70;3.58;;;15.80;99.90;;;;;;5031395;28;20048;-68
2021/10/06 18:16:14;;;;;;;10.05;3.70;;;15.80;99.90;;;;;;5029295;28;20041;-69
2021/10/06 18:18:42;;;;;;;9.15;3.70;;;15.80;99.90;;;;;;5029489;28;20841;-69
2021/10/06 18:21:09;;;;;;;9.65;3.30;;;15.80;99.90;;;;;;5029158;28;20045;-68
2021/10/06 18:23:36;;;;;;;5.20;2.75;;;15.90;99.90;;;;;;5028706;28;20049;-68
2021/10/06 18:26:05;;;;;;;5.85;1.92;;;15.90;99.90;;;;;;5028309;28;20091;-68
2021/10/06 18:28:32;;;;;;;4.97;2.47;;;15.90;99.90;;;;;;5028206;28;20052;-68
2021/10/06 18:30:59;;;;;;;6.68;2.50;;;16.00;99.90;;;;;;5028487;28;20051;-69
2021/10/06 18:33:27;;;;;;;11.18;2.58;;;16.10;99.90;;;;;;5029497;28;20053;-68
2021/10/06 18:35:54;;;;;;;6.15;2.30;;;16.20;99.90;;;;;;5029854;28;20972;-68
2021/10/06 18:38:21;;;;;;;7.38;2.50;;;16.10;99.90;;;;;;5030218;28;20052;-68
2021/10/06 18:40:48;;;;;;;4.80;2.47;;;16.30;99.90;;;;;;5030250;28;20558;-68
2021/10/06 18:43:17;;;;;;;6.97;2.33;;;16.30;99.90;;;;;;5030137;28;20705;-69
2021/10/06 18:45:44;;;;;;;6.38;3.08;;;16.30;99.90;;;;;;5027911;28;20414;-68
2021/10/06 18:48:11;;;;;;;6.60;2.70;;;16.30;99.90;;;;;;5029662;28;20044;-69
2021/10/06 18:50:38;;;;;;;7.20;2.70;;;16.30;99.90;;;;;;5029450;28;20041;-69
2021/10/06 18:53:05;;;;;;;5.90;2.35;;;16.20;99.90;;;;;;5029186;28;20052;-68
2021/10/06 18:55:32;;;;;;;4.93;2.30;;;16.10;99.90;;;;;;5031769;28;20049;-68
2021/10/06 18:57:59;;;;;;;4.82;2.28;;;16.10;99.90;;;;;;5033653;28;20848;-68
2021/10/06 19:00:28;;;;;;;11.35;3.03;;;16.00;99.90;;;;;;5031064;28;20048;-68
2021/10/06 19:02:55;;;;;;;6.68;2.30;;;15.80;99.90;;;;;;5030935;28;20095;-69
2021/10/06 19:05:24;;;;;;;6.78;2.88;;;15.70;99.90;;;;;;5028952;28;20115;-68
2021/10/06 19:07:51;;;;;;;4.40;2.20;;;15.70;99.90;;;;;;5030751;28;20449;-68
2021/10/06 19:10:19;;;;;;;6.25;2.53;;;15.60;99.90;;;;;;5030051;28;20049;-69
2021/10/06 19:12:48;;;;;;;6.65;2.75;;;15.40;99.90;;;;;;5031048;28;20459;-67
2021/10/06 19:15:15;;;;;;;8.07;3.08;;;15.30;99.90;;;;;;5034136;28;20049;-67
2021/10/06 19:17:44;;;;;;;7.93;3.22;;;15.20;99.90;;;;;;5033682;28;20107;-69
2021/10/06 19:20:12;;;;;;;7.82;2.80;;;15.10;99.90;;;;;;5032599;28;20044;-69
2021/10/06 19:22:40;;;;;;;5.63;2.63;;;15.00;99.90;;;;;;5033951;28;20258;-69
2021/10/06 19:25:09;;;;;;;5.55;2.47;;;14.90;99.90;;;;;;5035076;28;20893;-69
2021/10/06 19:27:36;;;;;;;7.65;3.33;;;14.80;99.90;;;;;;5036077;28;20045;-67
2021/10/06 19:30:04;;;;;;;6.28;3.00;;;14.70;99.90;;;;;;5035890;28;20542;-68
2021/10/06 19:32:31;;;;;;;4.80;2.63;;;14.70;99.90;;;;;;5035269;28;20441;-68
2021/10/06 19:35:00;;;;;;;7.55;2.83;;;14.60;99.90;;;;;;5034874;28;20045;-65
2021/10/06 19:37:27;;;;;;;4.93;2.30;;;14.50;99.90;;;;;;5034921;28;20709;-69
2021/10/06 19:39:55;;;;;;;10.07;2.17;;;14.50;99.90;;;;;;5035056;28;20045;-68
2021/10/06 19:42:23;;;;;;;5.72;2.35;;;14.50;99.90;;;;;;5033723;28;20120;-69
2021/10/06 19:44:50;;;;;;;5.15;1.83;;;14.60;99.90;;;;;;5033364;28;20056;-69
2021/10/06 19:47:17;;;;;;;4.80;2.30;;;14.50;99.90;;;;;;5032486;28;20061;-69
2021/10/06 19:49:44;;;;;;;8.05;2.53;;;14.40;99.90;;;;;;5033888;28;20053;-68
2021/10/06 19:52:13;;;;;;;7.47;2.50;;;14.40;99.90;;;;;;5034537;28;20045;-68
2021/10/06 19:54:40;;;;;;;4.85;2.30;;;14.30;99.90;;;;;;5033841;28;20111;-69
2021/10/06 19:57:07;;;;;;;4.63;2.00;;;14.20;99.90;;;;;;5033454;28;20505;-68
2021/10/06 19:59:34;;;;;;;5.45;2.17;;;14.10;99.90;;;;;;5035033;28;20041;-68
2021/10/06 20:02:01;;;;;;;5.13;2.60;;;14.10;99.90;;;;;;5034606;28;20050;-68
2021/10/06 20:04:28;;;;;;;6.22;2.20;;;14.10;99.90;;;;;;5034846;28;20045;-68
2021/10/06 20:06:55;;;;;;;4.25;1.88;;;14.00;99.90;;;;;;5034346;28;20098;-69
2021/10/06 20:09:24;;;;;;;7.03;2.20;;;13.90;99.90;;;;;;5033688;28;20041;-68
2021/10/06 20:11:51;;;;;;;9.00;2.65;;;13.90;99.90;;;;;;5034939;28;20048;-67
2021/10/06 20:14:18;;;;;;;4.53;2.40;;;13.80;99.90;;;;;;5033527;28;20102;-68
2021/10/06 20:16:46;;;;;;;7.65;2.70;;;13.70;99.90;;;;;;5033823;28;20136;-68
2021/10/06 20:19:13;;;;;;;5.65;2.63;;;13.70;99.90;;;;;;5034413;28;20049;-68
2021/10/06 20:21:40;;;;;;;7.57;2.30;;;13.60;99.90;;;;;;5033850;28;20053;-68
2021/10/06 20:24:07;;;;;;;6.75;2.50;;;13.60;99.90;;;;;;5035265;28;20098;-69
2021/10/06 20:26:36;;;;;;;5.18;2.47;;;13.60;99.90;;;;;;5032520;28;20045;-69
2021/10/06 20:29:03;;;;;;;6.78;3.00;;;13.60;99.90;;;;;;5033783;28;20505;-69
2021/10/06 20:31:30;;;;;;;7.40;2.92;;;13.60;99.90;;;;;;5033034;28;20053;-69
2021/10/06 20:34:02;;;;;;;7.35;3.47;;;13.60;99.90;;;;;;5032693;28;20055;-68
2021/10/06 20:36:50;;;;;;;7.95;3.17;;;13.60;99.90;;;;;;5032420;28;20061;-68
2021/10/06 20:39:17;;;;;;;11.57;3.72;;;13.50;99.90;;;;;;5032754;28;20143;-68
2021/10/06 20:41:46;;;;;;;8.30;3.50;;;13.50;99.90;;;;;;5032481;28;20739;-67
2021/10/06 20:44:16;;;;;;;12.07;4.03;;;13.50;99.90;;;;;;5032565;28;20456;-69
2021/10/06 20:46:46;;;;;;;10.18;3.90;;;13.60;99.90;;;;;;5031980;28;20053;-67
2021/10/06 20:49:13;;;;;;;12.43;4.90;;;13.50;99.90;;;;;;5032296;28;20141;-69
2021/10/06 20:51:40;;;;;;;8.30;3.10;;;13.50;99.90;;;;;;5033048;28;20103;-69
2021/10/06 20:54:08;;;;;;;8.10;3.88;;;13.40;99.90;;;;;;5032484;28;20041;-69
2021/10/06 20:56:35;;;;;;;9.20;3.40;;;13.40;99.90;;;;;;5032078;28;20454;-69
2021/10/06 20:59:04;;;;;;;9.48;3.45;;;13.40;99.90;;;;;;5032837;28;20386;-69
2021/10/06 21:01:31;;;;;;;7.68;2.72;;;13.30;99.90;;;;;;5032370;28;20083;-68
2021/10/06 21:03:58;;;;;;;5.30;2.45;;;13.30;99.90;;;;;;5032357;28;20060;-69
2021/10/06 21:06:25;;;;;;;4.78;2.50;;;13.30;99.90;;;;;;5030006;28;20048;-68
2021/10/06 21:08:53;;;;;;;8.23;2.58;;;13.20;99.90;;;;;;5032086;28;20075;-68
2021/10/06 21:11:20;;;;;;;7.72;2.78;;;13.20;99.90;;;;;;5032195;28;20479;-68
2021/10/06 21:13:47;;;;;;;6.30;2.72;;;13.20;99.90;;;;;;5031447;28;20049;-68
2021/10/06 21:16:15;;;;;;;10.38;3.20;;;13.10;99.90;;;;;;5032301;28;20049;-68
2021/10/06 21:18:43;;;;;;;8.45;3.10;;;13.20;99.90;;;;;;5032907;28;20972;-69
2021/10/06 21:21:12;;;;;;;8.43;3.75;;;13.20;99.90;;;;;;5032972;28;20045;-69
2021/10/06 21:23:41;;;;;;;8.90;3.70;;;13.20;99.90;;;;;;5033970;28;20052;-69
2021/10/06 21:26:08;;;;;;;6.75;2.92;;;13.20;99.90;;;;;;5032660;28;20167;-69
2021/10/06 21:28:38;;;;;;;6.32;2.35;;;13.10;99.90;;;;;;5033550;28;20428;-69
2021/10/06 21:31:05;;;;;;;7.70;3.00;;;13.10;99.90;;;;;;5033664;28;20055;-68
2021/10/06 21:33:35;;;;;;;8.10;2.90;;;13.10;99.90;;;;;;5031216;28;20107;-68
2021/10/06 21:36:04;;;;;;;6.47;2.72;;;13.10;99.90;;;;;;5031725;28;20060;-69
2021/10/06 21:38:31;;;;;;;8.55;3.22;;;13.10;99.90;;;;;;5030779;28;20049;-69
2021/10/06 21:40:59;;;;;;;4.97;2.78;;;13.10;99.90;;;;;;5031714;28;20044;-67
2021/10/06 21:43:26;;;;;;;7.60;2.50;;;13.20;99.90;;;;;;5029485;28;20049;-68
2021/10/06 21:45:54;;;;;;;7.50;2.70;;;13.20;99.90;;;;;;5029339;28;20045;-68
2021/10/06 21:48:21;;;;;;;5.68;2.40;;;13.10;99.90;;;;;;5029787;28;20048;-68
2021/10/06 21:50:50;;;;;;;6.20;2.03;;;13.20;99.90;;;;;;5029804;28;20075;-68
2021/10/06 21:53:17;;;;;;;8.60;2.45;;;13.10;99.90;;;;;;5030489;28;20045;-69
2021/10/06 21:55:44;;;;;;;4.55;2.10;;;13.00;99.90;;;;;;5030561;28;20542;-69
2021/10/06 21:58:11;;;;;;;7.03;2.53;;;12.90;99.90;;;;;;5031077;28;20067;-68
2021/10/06 22:00:40;;;;;;;7.38;2.65;;;12.90;99.90;;;;;;5030106;28;20122;-67
2021/10/06 22:03:07;;;;;;;9.75;2.95;;;12.90;99.90;;;;;;5030711;28;20049;-68
2021/10/06 22:05:35;;;;;;;7.68;3.25;;;12.80;99.90;;;;;;5031356;28;20049;-69
2021/10/06 22:08:03;;;;;;;6.43;2.65;;;12.70;99.90;;;;;;5035150;28;20069;-69
2021/10/06 22:10:30;;;;;;;7.70;3.20;;;12.70;99.90;;;;;;5035807;28;20053;-69
2021/10/06 22:12:58;;;;;;;7.30;3.22;;;12.70;99.90;;;;;;5035373;28;20056;-69
2021/10/06 22:15:25;;;;;;;7.22;3.10;;;12.70;99.90;;;;;;5034531;28;20052;-69
2021/10/06 22:17:52;;;;;;;7.07;3.17;;;12.60;99.90;;;;;;5036441;28;20094;-67
2021/10/06 22:20:21;;;;;;;6.97;2.85;;;12.50;99.90;;;;;;5034972;28;20044;-70
2021/10/06 22:22:49;;;;;;;8.43;2.90;;;12.50;99.90;;;;;;5035126;28;20179;-68
2021/10/06 22:25:18;;;;;;;7.95;2.92;;;12.40;99.90;;;;;;5034279;28;20390;-69
2021/10/06 22:27:46;;;;;;;6.05;3.10;;;12.40;99.90;;;;;;5034213;28;20049;-69
2021/10/06 22:30:14;;;;;;;7.85;3.05;;;12.40;99.90;;;;;;5035068;28;20049;-69
2021/10/06 22:32:42;;;;;;;6.53;2.88;;;12.40;99.90;;;;;;5035769;28;20045;-69
2021/10/06 22:35:11;;;;;;;7.45;3.17;;;12.40;99.90;;;;;;5035028;28;20721;-68
2021/10/06 22:37:38;;;;;;;8.88;3.80;;;12.40;99.90;;;;;;5034912;28;20045;-69
2021/10/06 22:40:07;;;;;;;7.00;3.17;;;12.40;99.90;;;;;;5035089;28;20045;-69
2021/10/06 22:42:36;;;;;;;7.72;2.97;;;12.40;99.90;;;;;;5034427;28;20053;-69
2021/10/06 22:45:04;;;;;;;7.32;2.97;;;12.30;99.90;;;;;;5033101;28;20053;-69
2021/10/06 22:47:31;;;;;;;11.32;3.97;;;12.40;99.90;;;;;;5034350;28;20053;-69
2021/10/06 22:49:58;;;;;;;9.30;3.25;;;12.40;99.90;;;;;;5034765;28;20048;-68
2021/10/06 22:52:25;;;;;;;7.75;3.03;;;12.40;99.90;;;;;;5033356;28;20413;-69
2021/10/06 22:54:52;;;;;;;9.23;2.70;;;12.30;99.90;;;;;;5031577;28;21025;-69
2021/10/06 22:57:19;;;;;;;7.85;2.60;;;12.30;99.90;;;;;;5030706;28;20049;-69
2021/10/06 22:59:47;;;;;;;9.70;2.80;;;12.20;99.90;;;;;;5031411;28;20114;-69
2021/10/06 23:02:14;;;;;;;5.63;2.38;;;12.30;99.90;;;;;;5032283;28;20053;-68
2021/10/06 23:04:42;;;;;;;8.50;3.10;;;12.20;99.90;;;;;;5032330;28;20099;-69
2021/10/06 23:07:09;;;;;;;8.75;3.13;;;12.20;99.90;;;;;;5031950;28;20145;-69
2021/10/06 23:09:36;;;;;;;8.05;3.08;;;12.20;99.90;;;;;;5033146;28;20579;-68
2021/10/06 23:12:03;;;;;;;7.40;2.88;;;12.20;99.90;;;;;;5032583;28;20045;-68
2021/10/06 23:14:30;;;;;;;5.30;2.80;;;12.30;99.90;;;;;;5031642;28;21545;-68
2021/10/06 23:16:59;;;;;;;7.05;3.10;;;12.30;99.90;;;;;;5031194;28;20055;-67
2021/10/06 23:19:26;;;;;;;7.32;3.03;;;12.30;99.90;;;;;;5031502;28;20098;-67
2021/10/06 23:21:53;;;;;;;7.28;2.47;;;12.40;99.90;;;;;;5031234;28;20053;-68
2021/10/06 23:24:20;;;;;;;6.10;2.65;;;12.40;99.90;;;;;;5031429;28;20049;-67
2021/10/06 23:26:47;;;;;;;7.03;3.30;;;12.40;99.90;;;;;;5031298;28;20110;-68
2021/10/06 23:29:14;;;;;;;6.80;2.40;;;12.30;99.90;;;;;;5033679;28;20317;-69
2021/10/06 23:31:41;;;;;;;7.35;2.67;;;12.30;99.90;;;;;;5033401;28;20052;-67
2021/10/06 23:34:09;;;;;;;13.32;3.20;;;12.30;99.90;;;;;;5034311;28;20069;-69
2021/10/06 23:36:36;;;;;;;10.88;3.13;;;12.30;99.90;;;;;;5034079;28;20095;-69
2021/10/06 23:39:04;;;;;;;7.75;2.97;;;12.30;99.90;;;;;;5034532;28;20049;-68
2021/10/06 23:41:31;;;;;;;6.22;2.90;;;12.30;99.90;;;;;;5033718;28;20903;-68
2021/10/06 23:43:58;;;;;;;9.18;3.15;;;12.30;99.90;;;;;;5033968;28;20056;-68
2021/10/06 23:46:25;;;;;;;8.23;3.05;;;12.30;99.90;;;;;;5034583;28;20106;-68
2021/10/06 23:48:52;;;;;;;7.97;3.30;;;12.20;99.90;;;;;;5034433;28;20048;-68
2021/10/06 23:51:21;;;;;;;9.02;2.65;;;12.30;99.90;;;;;;5033230;28;20052;-68
2021/10/06 23:53:48;;;;;;;8.95;2.70;;;12.40;99.90;;;;;;5033031;28;20271;-68
2021/10/06 23:56:18;;;;;;;7.18;3.00;;;12.30;99.90;;;;;;5032253;28;20099;-69
2021/10/06 23:58:45;;;;;;;6.88;2.80;;;12.30;99.90;;;;;;5032751;28;20120;-69
